createdAt,value
2018-06-23T00:02:04.754Z,13.70
2018-06-23T00:04:34.427Z,13.70
2018-06-23T00:07:04.265Z,13.40
2018-06-23T00:09:33.841Z,13.50
2018-06-23T00:12:03.521Z,13.60
2018-06-23T00:14:33.132Z,13.50
2018-06-23T00:17:04.543Z,13.50
2018-06-23T00:19:34.366Z,13.50
2018-06-23T00:22:04.017Z,13.50
2018-06-23T00:24:33.669Z,13.60
2018-06-23T00:27:03.338Z,13.50
2018-06-23T00:29:32.962Z,13.60
2018-06-23T00:32:02.652Z,13.70
2018-06-23T00:34:32.264Z,13.70
2018-06-23T00:37:01.809Z,13.70
2018-06-23T00:39:31.512Z,13.70
2018-06-23T00:42:01.184Z,13.70
2018-06-23T00:44:30.782Z,13.70
2018-06-23T00:47:00.453Z,13.80
2018-06-23T00:49:30.061Z,13.80
2018-06-23T00:51:59.717Z,13.80
2018-06-23T00:54:29.349Z,13.70
2018-06-23T00:56:59.055Z,13.80
2018-06-23T00:59:42.098Z,13.80
2018-06-23T01:02:11.723Z,13.70
2018-06-23T01:04:41.369Z,13.80
2018-06-23T01:07:11.456Z,13.70
2018-06-23T01:09:41.133Z,13.70
2018-06-23T01:12:10.957Z,13.70
2018-06-23T01:14:40.582Z,13.60
2018-06-23T01:17:12.425Z,13.60
2018-06-23T01:22:54.291Z,13.60
2018-06-23T01:25:25.544Z,13.60
2018-06-23T01:27:55.593Z,13.50
2018-06-23T01:30:33.924Z,13.40
2018-06-23T01:33:08.118Z,13.40
2018-06-23T01:35:38.794Z,13.40
2018-06-23T01:38:15.057Z,13.30
2018-06-23T01:40:51.268Z,13.30
2018-06-23T01:43:23.147Z,13.20
2018-06-23T01:45:53.789Z,13.20
2018-06-23T01:48:24.007Z,13.20
2018-06-23T01:50:53.639Z,13.20
2018-06-23T01:53:23.402Z,13.20
2018-06-23T01:55:53.232Z,13.20
2018-06-23T01:58:22.944Z,13.20
2018-06-23T02:00:52.518Z,13.20
2018-06-23T02:03:22.158Z,13.20
2018-06-23T02:05:53.785Z,13.20
2018-06-23T02:08:40.047Z,13.00
2018-06-23T02:11:14.042Z,13.20
2018-06-23T02:13:44.832Z,13.20
2018-06-23T02:16:21.566Z,13.20
2018-06-23T02:18:56.482Z,13.20
2018-06-23T02:21:31.864Z,13.20
2018-06-23T02:24:06.755Z,13.30
2018-06-23T02:29:17.123Z,13.30
2018-06-23T02:31:51.888Z,13.30
2018-06-23T02:34:28.918Z,13.30
2018-06-23T02:36:58.568Z,13.30
2018-06-23T02:39:28.366Z,13.40
2018-06-23T02:41:58.042Z,13.40
2018-06-23T02:44:27.847Z,13.30
2018-06-23T02:46:59.537Z,13.40
2018-06-23T02:49:32.046Z,13.30
2018-06-23T02:52:04.146Z,13.40
2018-06-23T02:54:38.992Z,13.30
2018-06-23T02:59:41.009Z,13.30
2018-06-23T03:02:12.743Z,13.30
2018-06-23T03:04:43.644Z,13.30
2018-06-23T03:07:17.767Z,13.20
2018-06-23T03:10:02.450Z,13.20
2018-06-23T03:12:33.155Z,13.10
2018-06-23T03:15:03.028Z,13.10
2018-06-23T03:17:33.837Z,13.10
2018-06-23T03:20:05.964Z,13.10
2018-06-23T03:22:36.605Z,13.00
2018-06-23T03:25:25.857Z,13.00
2018-06-23T03:27:56.491Z,13.00
2018-06-23T03:30:26.442Z,13.10
2018-06-23T03:32:56.087Z,13.10
2018-06-23T03:35:25.735Z,13.00
2018-06-23T03:37:55.314Z,13.10
2018-06-23T03:40:25.062Z,13.10
2018-06-23T03:42:54.802Z,13.20
2018-06-23T03:45:25.668Z,13.20
2018-06-23T03:47:55.510Z,13.20
2018-06-23T03:50:25.317Z,13.30
2018-06-23T03:52:55.064Z,13.40
2018-06-23T03:55:24.712Z,13.50
2018-06-23T03:57:54.409Z,13.50
2018-06-23T04:00:24.277Z,13.60
2018-06-23T04:02:54.413Z,13.60
2018-06-23T04:07:53.560Z,13.70
2018-06-23T04:10:23.452Z,13.80
2018-06-23T04:12:53.134Z,13.90
2018-06-23T04:15:23.843Z,13.90
2018-06-23T04:17:53.365Z,14.00
2018-06-23T04:20:24.022Z,14.00
2018-06-23T04:23:00.649Z,14.10
2018-06-23T04:33:42.493Z,14.10
2018-06-23T04:36:26.276Z,14.20
2018-06-23T04:41:25.251Z,14.20
2018-06-23T04:43:54.926Z,14.20
2018-06-23T04:46:24.817Z,14.30
2018-06-23T04:48:54.545Z,14.40
2018-06-23T04:51:24.539Z,14.50
2018-06-23T04:53:54.284Z,14.60
2018-06-23T04:56:24.097Z,14.80
2018-06-23T04:58:53.807Z,14.80
2018-06-23T05:01:23.468Z,14.90
2018-06-23T05:03:53.100Z,15.00
2018-06-23T05:06:23.055Z,15.10
2018-06-23T05:08:52.692Z,15.10
2018-06-23T05:11:22.519Z,15.20
2018-06-23T05:13:52.195Z,15.30
2018-06-23T05:16:21.994Z,15.30
2018-06-23T05:18:51.711Z,15.30
2018-06-23T05:21:21.404Z,15.40
2018-06-23T05:23:51.214Z,15.50
2018-06-23T05:26:21.010Z,15.50
2018-06-23T05:28:50.677Z,15.50
2018-06-23T05:31:20.609Z,15.50
2018-06-23T05:33:50.387Z,15.60
2018-06-23T05:36:20.384Z,15.60
2018-06-23T05:38:50.034Z,15.60
2018-06-23T05:41:19.792Z,15.70
2018-06-23T05:43:50.175Z,15.70
2018-06-23T05:46:20.068Z,15.80
2018-06-23T05:48:49.741Z,15.80
2018-06-23T05:51:19.741Z,15.90
2018-06-23T05:53:49.288Z,15.90
2018-06-23T05:56:19.201Z,15.90
2018-06-23T05:58:49.204Z,16.00
2018-06-23T06:01:18.997Z,16.10
2018-06-23T06:03:48.882Z,16.10
2018-06-23T06:06:18.706Z,16.30
2018-06-23T06:08:49.604Z,16.30
2018-06-23T06:11:19.397Z,16.30
2018-06-23T06:13:49.096Z,16.30
2018-06-23T06:16:33.186Z,16.40
2018-06-23T06:19:03.204Z,16.40
2018-06-23T06:21:33.401Z,16.50
2018-06-23T06:24:03.407Z,16.60
2018-06-23T06:26:33.440Z,16.80
2018-06-23T06:29:05.067Z,16.90
2018-06-23T06:31:34.987Z,16.90
2018-06-23T06:34:06.022Z,17.00
2018-06-23T06:36:35.726Z,17.10
2018-06-23T06:39:07.341Z,17.20
2018-06-23T06:41:37.118Z,17.40
2018-06-23T06:44:06.865Z,17.60
2018-06-23T06:46:36.738Z,17.70
2018-06-23T06:49:06.553Z,17.70
2018-06-23T06:51:36.891Z,17.90
2018-06-23T06:54:06.689Z,18.10
2018-06-23T06:56:36.396Z,18.10
2018-06-23T06:59:06.332Z,18.30
2018-06-23T07:01:36.208Z,18.40
2018-06-23T07:04:05.884Z,18.50
2018-06-23T07:06:36.931Z,18.60
2018-06-23T07:09:10.473Z,18.70
2018-06-23T07:11:40.361Z,18.80
2018-06-23T07:14:10.027Z,18.90
2018-06-23T07:16:40.916Z,18.90
2018-06-23T07:19:11.657Z,18.90
2018-06-23T07:21:41.459Z,18.90
2018-06-23T07:24:11.348Z,19.00
2018-06-23T07:26:41.058Z,19.30
2018-06-23T07:29:10.523Z,19.40
2018-06-23T07:31:39.935Z,19.60
2018-06-23T07:34:09.517Z,19.50
2018-06-23T07:36:38.952Z,19.40
2018-06-23T07:39:09.789Z,19.30
2018-06-23T07:41:39.342Z,19.40
2018-06-23T07:44:09.299Z,19.60
2018-06-23T07:46:38.860Z,19.40
2018-06-23T07:49:08.316Z,19.10
2018-06-23T07:51:37.979Z,19.10
2018-06-23T07:54:07.575Z,19.20
2018-06-23T07:56:37.061Z,19.40
2018-06-23T07:59:06.501Z,19.80
2018-06-23T08:01:36.050Z,20.30
2018-06-23T08:04:05.572Z,21.20
2018-06-23T08:06:34.965Z,22.00
2018-06-23T08:09:07.869Z,22.30
2018-06-23T08:11:37.334Z,22.60
2018-06-23T08:14:06.726Z,22.90
2018-06-23T08:16:36.468Z,23.10
2018-06-23T08:19:06.299Z,23.20
2018-06-23T08:21:36.735Z,23.30
2018-06-23T08:24:16.833Z,23.60
2018-06-23T08:26:49.610Z,23.80
2018-06-23T08:29:19.086Z,23.50
2018-06-23T08:31:48.564Z,23.90
2018-06-23T08:34:17.955Z,25.10
2018-06-23T08:36:47.385Z,26.70
2018-06-23T08:39:16.775Z,27.60
2018-06-23T08:41:46.278Z,28.70
2018-06-23T08:44:15.716Z,29.90
2018-06-23T08:46:45.235Z,30.90
2018-06-23T08:49:14.692Z,31.90
2018-06-23T08:51:44.147Z,31.40
2018-06-23T08:54:13.594Z,30.20
2018-06-23T08:56:43.063Z,29.30
2018-06-23T08:59:12.511Z,28.70
2018-06-23T09:01:41.912Z,28.40
2018-06-23T09:04:11.666Z,28.40
2018-06-23T09:06:41.582Z,27.80
2018-06-23T09:09:11.702Z,26.90
2018-06-23T09:11:41.315Z,25.90
2018-06-23T09:14:10.787Z,25.30
2018-06-23T09:16:40.317Z,25.40
2018-06-23T09:19:09.883Z,25.80
2018-06-23T09:21:39.372Z,26.60
2018-06-23T09:24:08.821Z,26.90
2018-06-23T09:26:38.497Z,26.60
2018-06-23T09:29:07.936Z,26.40
2018-06-23T09:31:37.505Z,26.00
2018-06-23T09:34:06.982Z,25.50
2018-06-23T09:36:36.429Z,25.10
2018-06-23T09:39:08.266Z,24.60
2018-06-23T09:41:37.796Z,24.20
2018-06-23T09:44:07.717Z,24.60
2018-06-23T09:46:37.618Z,25.70
2018-06-23T09:49:07.178Z,26.10
2018-06-23T09:51:36.626Z,25.70
2018-06-23T09:54:07.204Z,25.30
2018-06-23T09:56:36.677Z,24.80
2018-06-23T09:59:07.381Z,24.40
2018-06-23T10:01:37.051Z,25.10
2018-06-23T10:04:08.207Z,26.40
2018-06-23T10:06:37.688Z,27.00
2018-06-23T10:09:08.766Z,26.60
2018-06-23T10:11:38.200Z,26.10
2018-06-23T10:14:07.956Z,25.50
2018-06-23T10:16:37.346Z,26.20
2018-06-23T10:19:06.743Z,27.40
2018-06-23T10:21:36.333Z,28.20
2018-06-23T10:24:05.822Z,27.90
2018-06-23T10:26:35.701Z,27.50
2018-06-23T10:29:05.165Z,27.50
2018-06-23T10:31:34.583Z,28.20
2018-06-23T10:34:04.186Z,28.20
2018-06-23T10:36:33.706Z,27.90
2018-06-23T10:39:03.373Z,27.60
2018-06-23T10:41:32.948Z,27.10
2018-06-23T10:44:02.363Z,27.20
2018-06-23T10:46:31.939Z,27.40
2018-06-23T10:49:01.429Z,26.90
2018-06-23T10:51:30.876Z,26.40
2018-06-23T10:54:00.476Z,26.50
2018-06-23T10:56:29.946Z,26.70
2018-06-23T10:58:59.452Z,26.60
2018-06-23T11:01:28.949Z,26.50
2018-06-23T11:03:58.401Z,26.20
2018-06-23T11:06:27.880Z,26.20
2018-06-23T11:08:57.262Z,26.20
2018-06-23T11:11:26.739Z,26.50
2018-06-23T11:13:56.140Z,26.70
2018-06-23T11:16:25.843Z,26.50
2018-06-23T11:18:55.288Z,26.10
2018-06-23T11:24:25.638Z,24.80
2018-06-23T11:30:12.824Z,23.80
2018-06-23T11:32:42.332Z,23.50
2018-06-23T11:35:11.778Z,23.30
2018-06-23T11:37:42.518Z,23.20
2018-06-23T11:40:12.026Z,23.10
2018-06-23T11:42:41.652Z,22.80
2018-06-23T11:45:09.090Z,22.70
2018-06-23T11:47:39.467Z,22.70
2018-06-23T11:50:09.117Z,22.50
2018-06-23T11:52:38.757Z,22.30
2018-06-23T11:55:08.500Z,22.20
2018-06-23T11:57:38.018Z,22.00
2018-06-23T12:00:08.126Z,22.00
2018-06-23T12:02:37.679Z,22.00
2018-06-23T12:05:07.328Z,21.90
2018-06-23T12:07:36.884Z,21.80
2018-06-23T12:10:06.686Z,21.80
2018-06-23T12:12:36.312Z,21.70
2018-06-23T12:15:05.924Z,21.70
2018-06-23T12:17:35.591Z,21.70
2018-06-23T12:20:05.438Z,21.80
2018-06-23T12:22:35.968Z,21.90
2018-06-23T12:25:05.660Z,21.90
2018-06-23T12:27:35.231Z,22.00
2018-06-23T12:30:05.748Z,22.00
2018-06-23T12:32:35.230Z,22.10
2018-06-23T12:35:04.698Z,22.10
2018-06-23T12:37:34.356Z,22.00
2018-06-23T12:40:04.059Z,21.90
2018-06-23T12:42:33.668Z,21.90
2018-06-23T12:45:03.665Z,21.80
2018-06-23T12:47:33.331Z,21.70
2018-06-23T12:50:05.671Z,21.50
2018-06-23T12:52:35.159Z,21.50
2018-06-23T12:55:04.659Z,21.60
2018-06-23T12:57:35.050Z,21.60
2018-06-23T13:00:05.620Z,21.60
2018-06-23T13:02:35.112Z,21.60
2018-06-23T13:05:05.003Z,21.40
2018-06-23T13:07:34.535Z,21.50
2018-06-23T13:10:04.299Z,21.70
2018-06-23T13:12:33.884Z,21.80
2018-06-23T13:15:06.145Z,21.90
2018-06-23T13:17:35.898Z,21.90
2018-06-23T13:20:05.463Z,21.80
2018-06-23T13:22:35.186Z,21.60
2018-06-23T13:25:05.843Z,21.50
2018-06-23T13:27:35.469Z,21.40
2018-06-23T13:30:05.341Z,21.30
2018-06-23T13:32:34.832Z,21.20
2018-06-23T13:35:06.145Z,21.00
2018-06-23T13:37:35.716Z,20.90
2018-06-23T13:40:05.303Z,20.80
2018-06-23T13:42:34.858Z,20.70
2018-06-23T13:45:05.532Z,20.50
2018-06-23T13:47:35.273Z,20.60
2018-06-23T13:50:06.315Z,20.60
2018-06-23T13:52:35.985Z,20.80
2018-06-23T13:55:06.069Z,20.80
2018-06-23T13:57:35.822Z,20.90
2018-06-23T14:00:06.411Z,21.00
2018-06-23T14:02:36.547Z,21.10
2018-06-23T14:05:06.627Z,21.00
2018-06-23T14:07:36.105Z,21.10
2018-06-23T14:10:05.795Z,21.10
2018-06-23T14:12:35.307Z,21.10
2018-06-23T14:15:04.830Z,21.10
2018-06-23T14:17:34.762Z,21.20
2018-06-23T14:20:04.801Z,21.10
2018-06-23T14:22:34.551Z,21.20
2018-06-23T14:25:04.173Z,21.10
2018-06-23T14:27:33.849Z,21.20
2018-06-23T14:30:03.436Z,21.20
2018-06-23T14:32:33.177Z,21.10
2018-06-23T14:35:03.028Z,21.10
2018-06-23T14:37:33.562Z,21.10
2018-06-23T14:40:03.269Z,21.10
2018-06-23T14:42:32.768Z,20.90
2018-06-23T14:45:03.807Z,20.90
2018-06-23T14:47:34.404Z,20.90
2018-06-23T14:50:04.063Z,20.90
2018-06-23T14:52:33.709Z,20.80
2018-06-23T14:55:03.160Z,20.80
2018-06-23T14:57:32.759Z,20.80
2018-06-23T15:00:03.371Z,20.90
2018-06-23T15:02:33.015Z,20.90
2018-06-23T15:05:03.579Z,20.90
2018-06-23T15:07:33.250Z,20.90
2018-06-23T15:10:13.733Z,20.90
2018-06-23T15:12:54.186Z,20.90
2018-06-23T15:15:23.820Z,20.90
2018-06-23T15:17:53.426Z,20.80
2018-06-23T15:20:23.169Z,20.70
2018-06-23T15:22:52.664Z,20.60
2018-06-23T15:25:22.242Z,20.60
2018-06-23T15:27:51.953Z,20.70
2018-06-23T15:30:21.533Z,20.70
2018-06-23T15:32:51.035Z,20.70
2018-06-23T15:35:20.661Z,20.70
2018-06-23T15:37:50.405Z,20.60
2018-06-23T15:40:19.867Z,20.60
2018-06-23T15:42:49.575Z,20.30
2018-06-23T15:45:19.153Z,20.50
2018-06-23T15:47:48.665Z,20.40
2018-06-23T15:50:18.384Z,20.40
2018-06-23T15:52:48.016Z,20.30
2018-06-23T15:55:18.119Z,20.30
2018-06-23T15:57:47.649Z,20.10
2018-06-23T16:00:17.261Z,20.10
2018-06-23T16:02:46.857Z,20.00
2018-06-23T16:05:17.304Z,20.00
2018-06-23T16:07:46.844Z,19.90
2018-06-23T16:10:19.511Z,19.90
2018-06-23T16:12:49.114Z,19.90
2018-06-23T16:15:18.868Z,20.00
2018-06-23T16:17:48.296Z,20.00
2018-06-23T16:20:17.909Z,20.10
2018-06-23T16:22:48.048Z,20.20
2018-06-23T16:25:17.629Z,20.20
2018-06-23T16:27:47.340Z,20.20
2018-06-23T16:30:16.948Z,20.20
2018-06-23T16:32:46.489Z,20.30
2018-06-23T16:35:16.570Z,20.30
2018-06-23T16:37:45.987Z,20.30
2018-06-23T16:40:15.352Z,20.30
2018-06-23T16:42:44.880Z,20.40
2018-06-23T16:45:14.413Z,20.30
2018-06-23T16:47:44.089Z,20.20
2018-06-23T16:50:13.551Z,20.20
2018-06-23T16:52:43.120Z,20.20
2018-06-23T16:55:13.240Z,20.20
2018-06-23T16:57:42.858Z,20.10
2018-06-23T17:00:12.522Z,20.00
2018-06-23T17:02:42.165Z,19.80
2018-06-23T17:05:11.838Z,19.80
2018-06-23T17:07:41.438Z,19.70
2018-06-23T17:10:11.022Z,19.80
2018-06-23T17:12:40.714Z,19.70
2018-06-23T17:15:10.384Z,19.80
2018-06-23T17:17:40.136Z,19.80
2018-06-23T17:20:10.051Z,19.80
2018-06-23T17:22:39.561Z,19.70
2018-06-23T17:25:10.080Z,19.70
2018-06-23T17:27:39.672Z,19.70
2018-06-23T17:30:10.222Z,19.70
2018-06-23T17:32:39.766Z,19.60
2018-06-23T17:35:09.268Z,19.50
2018-06-23T17:37:38.852Z,19.50
2018-06-23T17:40:08.453Z,19.40
2018-06-23T17:42:38.007Z,19.40
2018-06-23T17:45:07.703Z,19.40
2018-06-23T17:47:37.103Z,19.30
2018-06-23T17:50:07.973Z,19.30
2018-06-23T17:52:38.036Z,19.30
2018-06-23T17:55:08.032Z,19.30
2018-06-23T17:57:38.075Z,19.30
2018-06-23T18:00:08.634Z,19.20
2018-06-23T18:02:38.303Z,19.20
2018-06-23T18:05:07.858Z,19.10
2018-06-23T18:07:37.370Z,19.10
2018-06-23T18:10:06.923Z,19.10
2018-06-23T18:12:36.485Z,19.00
2018-06-23T18:15:06.374Z,19.00
2018-06-23T18:17:35.989Z,18.70
2018-06-23T18:20:05.769Z,18.60
2018-06-23T18:22:35.800Z,18.30
2018-06-23T18:25:05.443Z,18.30
2018-06-23T18:27:35.047Z,18.20
2018-06-23T18:30:05.317Z,18.30
2018-06-23T18:32:35.294Z,18.30
2018-06-23T18:35:04.743Z,18.30
2018-06-23T18:37:34.437Z,18.40
2018-06-23T18:40:06.005Z,18.40
2018-06-23T18:42:35.630Z,18.40
2018-06-23T18:45:05.244Z,18.40
2018-06-23T18:47:34.769Z,18.40
2018-06-23T18:50:04.718Z,18.50
2018-06-23T18:52:35.213Z,18.40
2018-06-23T18:55:05.256Z,18.50
2018-06-23T18:57:34.949Z,18.50
2018-06-23T19:00:05.280Z,18.50
2018-06-23T19:02:34.727Z,18.50
2018-06-23T19:05:07.374Z,18.40
2018-06-23T19:07:36.851Z,18.40
2018-06-23T19:10:06.640Z,18.40
2018-06-23T19:12:36.080Z,18.40
2018-06-23T19:15:05.939Z,18.40
2018-06-23T19:17:35.397Z,18.30
2018-06-23T19:20:07.877Z,18.40
2018-06-23T19:22:37.429Z,18.30
2018-06-23T19:25:07.053Z,18.40
2018-06-23T19:27:36.647Z,18.40
2018-06-23T19:30:06.327Z,18.30
2018-06-23T19:32:35.803Z,18.20
2018-06-23T19:35:05.470Z,18.00
2018-06-23T19:37:35.077Z,17.80
2018-06-23T19:40:04.684Z,17.70
2018-06-23T19:42:34.253Z,17.60
2018-06-23T19:45:03.890Z,17.60
2018-06-23T19:47:33.332Z,17.50
2018-06-23T19:50:05.597Z,17.50
2018-06-23T19:52:35.517Z,17.40
2018-06-23T19:55:05.637Z,17.30
2018-06-23T19:57:35.225Z,17.30
2018-06-23T20:00:05.591Z,17.40
2018-06-23T20:02:35.068Z,17.50
2018-06-23T20:05:04.740Z,17.60
2018-06-23T20:07:34.975Z,17.60
2018-06-23T20:10:04.710Z,17.60
2018-06-23T20:12:34.677Z,17.60
2018-06-23T20:15:04.514Z,17.60
2018-06-23T20:17:34.283Z,17.70
2018-06-23T20:20:04.206Z,17.60
2018-06-23T20:22:33.899Z,17.70
2018-06-23T20:25:04.706Z,17.70
2018-06-23T20:27:35.357Z,17.70
2018-06-23T20:30:05.899Z,17.70
2018-06-23T20:32:35.474Z,17.70
2018-06-23T20:35:05.191Z,17.70
2018-06-23T20:37:34.977Z,17.70
2018-06-23T20:40:05.514Z,17.60
2018-06-23T20:42:35.352Z,17.60
2018-06-23T20:45:05.956Z,17.50
2018-06-23T20:47:35.841Z,17.50
2018-06-23T20:50:06.881Z,17.50
2018-06-23T20:52:36.446Z,17.50
2018-06-23T20:55:06.384Z,17.50
2018-06-23T20:57:36.381Z,17.30
2018-06-23T21:00:06.104Z,17.30
2018-06-23T21:02:35.764Z,17.40
2018-06-23T21:05:07.263Z,17.40
2018-06-23T21:07:36.853Z,17.30
2018-06-23T21:10:06.737Z,17.30
2018-06-23T21:12:37.609Z,17.30
2018-06-23T21:15:07.643Z,17.20
2018-06-23T21:17:38.209Z,17.10
2018-06-23T21:20:07.981Z,17.10
2018-06-23T21:22:37.636Z,17.20
2018-06-23T21:25:07.593Z,17.10
2018-06-23T21:27:37.249Z,17.20
2018-06-23T21:30:07.007Z,17.20
2018-06-23T21:32:36.523Z,17.10
2018-06-23T21:35:06.251Z,17.20
2018-06-23T21:37:38.576Z,17.10
2018-06-23T21:40:08.420Z,17.10
2018-06-23T21:42:39.178Z,17.10
2018-06-23T21:45:08.885Z,17.10
2018-06-23T21:47:38.707Z,17.00
2018-06-23T21:50:08.424Z,17.00
2018-06-23T21:52:38.153Z,16.90
2018-06-23T21:55:08.917Z,16.90
2018-06-23T21:57:38.506Z,16.80
2018-06-23T22:00:42.827Z,16.80
2018-06-23T22:03:13.385Z,16.70
2018-06-23T22:05:43.564Z,16.70
2018-06-23T22:08:13.514Z,16.60
2018-06-23T22:10:43.348Z,16.50
2018-06-23T22:13:13.247Z,16.40
2018-06-23T22:15:42.903Z,16.40
2018-06-23T22:18:12.700Z,16.40
2018-06-23T22:20:42.462Z,16.40
2018-06-23T22:23:12.225Z,16.40
2018-06-23T22:25:41.924Z,16.40
2018-06-23T22:28:11.778Z,16.40
2018-06-23T22:30:41.391Z,16.50
2018-06-23T22:33:11.192Z,16.40
2018-06-23T22:35:40.857Z,16.30
2018-06-23T22:38:10.655Z,16.30
2018-06-23T22:40:40.409Z,16.40
2018-06-23T22:43:10.215Z,16.30
2018-06-23T22:45:40.790Z,16.30
2018-06-23T22:48:10.763Z,16.30
2018-06-23T22:50:41.363Z,16.40
2018-06-23T22:53:11.099Z,16.40
2018-06-23T22:55:40.848Z,16.30
2018-06-23T22:58:10.951Z,16.40
2018-06-23T23:00:42.287Z,16.30
2018-06-23T23:03:12.280Z,16.20
2018-06-23T23:05:42.223Z,16.30
2018-06-23T23:08:11.977Z,16.30
2018-06-23T23:10:41.758Z,16.40
2018-06-23T23:13:11.983Z,16.40
2018-06-23T23:15:41.801Z,16.30
2018-06-23T23:18:11.571Z,16.30
2018-06-23T23:20:41.321Z,16.20
2018-06-23T23:23:11.123Z,16.20
2018-06-23T23:25:41.959Z,16.20
2018-06-23T23:28:11.969Z,16.00
2018-06-23T23:30:41.817Z,16.10
2018-06-23T23:33:12.793Z,16.20
2018-06-23T23:35:42.700Z,16.10
2018-06-23T23:38:15.584Z,16.10
2018-06-23T23:40:45.833Z,16.10
2018-06-23T23:43:15.665Z,16.10
2018-06-23T23:45:45.405Z,16.00
2018-06-23T23:48:15.174Z,15.80
2018-06-23T23:50:44.675Z,15.40
2018-06-23T23:53:14.452Z,15.50
2018-06-23T23:55:43.927Z,15.60
2018-06-23T23:58:13.579Z,15.50
